createdAt,value
2022-08-30T00:00:24.813Z,42.40
2022-08-30T00:01:32.330Z,42.75
2022-08-30T00:02:36.856Z,42.91
2022-08-30T00:03:41.869Z,42.94
2022-08-30T00:04:45.325Z,42.76
2022-08-30T00:05:47.754Z,42.79
2022-08-30T00:06:50.566Z,42.58
2022-08-30T00:07:52.926Z,42.72
2022-08-30T00:08:55.359Z,42.49
2022-08-30T00:09:57.721Z,42.39
2022-08-30T00:11:00.480Z,42.46
2022-08-30T00:12:03.633Z,42.43
2022-08-30T00:13:07.396Z,42.30
2022-08-30T00:14:09.637Z,42.32
2022-08-30T00:15:13.089Z,42.45
2022-08-30T00:16:17.042Z,42.63
2022-08-30T00:17:19.306Z,42.53
2022-08-30T00:18:21.852Z,42.68
2022-08-30T00:19:25.955Z,42.82
2022-08-30T00:20:31.743Z,42.60
2022-08-30T00:21:34.862Z,42.85
2022-08-30T00:22:37.492Z,42.99
2022-08-30T00:23:39.896Z,42.75
2022-08-30T00:24:42.185Z,42.65
2022-08-30T00:25:44.542Z,42.77
2022-08-30T00:26:47.090Z,42.98
2022-08-30T00:27:49.574Z,42.77
2022-08-30T00:28:51.930Z,43.02
2022-08-30T00:29:54.853Z,42.89
2022-08-30T00:30:58.227Z,43.06
2022-08-30T00:32:01.365Z,43.04
2022-08-30T00:33:04.121Z,43.19
2022-08-30T00:34:06.286Z,43.24
2022-08-30T00:35:09.273Z,43.31
2022-08-30T00:36:13.909Z,43.31
2022-08-30T00:37:16.312Z,43.37
2022-08-30T00:38:18.571Z,43.31
2022-08-30T00:39:21.142Z,43.31
2022-08-30T00:40:27.231Z,43.34
2022-08-30T00:41:28.553Z,43.12
2022-08-30T00:42:31.696Z,43.33
2022-08-30T00:43:34.264Z,43.38
2022-08-30T00:44:40.278Z,43.40
2022-08-30T00:45:42.497Z,43.22
2022-08-30T00:46:45.156Z,42.72
2022-08-30T00:47:47.437Z,42.72
2022-08-30T00:48:49.900Z,43.19
2022-08-30T00:49:55.390Z,43.08
2022-08-30T00:51:02.843Z,42.89
2022-08-30T00:52:05.715Z,42.96
2022-08-30T00:53:17.617Z,42.96
2022-08-30T00:54:20.541Z,43.01
2022-08-30T00:55:24.073Z,43.12
2022-08-30T00:56:28.383Z,42.98
2022-08-30T00:57:31.011Z,43.26
2022-08-30T00:59:48.340Z,43.42
2022-08-30T01:00:51.846Z,43.19
2022-08-30T01:01:54.733Z,43.27
2022-08-30T01:02:57.291Z,43.16
2022-08-30T01:03:59.866Z,43.40
2022-08-30T01:05:02.544Z,43.57
2022-08-30T01:06:05.985Z,43.41
2022-08-30T01:07:14.744Z,43.24
2022-08-30T01:08:18.079Z,43.24
2022-08-30T01:09:20.585Z,43.16
2022-08-30T01:10:24.696Z,43.28
2022-08-30T01:11:26.959Z,43.28
2022-08-30T01:12:29.555Z,43.38
2022-08-30T01:13:33.004Z,43.18
2022-08-30T01:14:35.306Z,43.06
2022-08-30T01:15:37.627Z,43.06
2022-08-30T01:16:41.247Z,43.10
2022-08-30T01:17:43.782Z,43.07
2022-08-30T01:18:46.509Z,43.19
2022-08-30T01:21:29.837Z,43.06
2022-08-30T01:22:43.164Z,43.03
2022-08-30T01:23:48.823Z,42.99
2022-08-30T01:24:51.738Z,43.29
2022-08-30T01:25:54.172Z,43.47
2022-08-30T01:26:57.432Z,43.44
2022-08-30T01:28:02.877Z,43.47
2022-08-30T01:29:07.996Z,43.57
2022-08-30T01:30:12.492Z,43.61
2022-08-30T01:31:15.055Z,43.67
2022-08-30T01:32:21.175Z,43.47
2022-08-30T01:33:22.906Z,43.30
2022-08-30T01:34:25.183Z,43.42
2022-08-30T01:35:29.642Z,43.63
2022-08-30T01:36:33.458Z,43.66
2022-08-30T01:37:35.739Z,43.67
2022-08-30T01:38:41.368Z,43.47
2022-08-30T01:39:45.221Z,43.67
2022-08-30T01:40:48.607Z,43.46
2022-08-30T01:41:51.028Z,43.43
2022-08-30T01:42:53.289Z,43.61
2022-08-30T01:43:57.237Z,43.50
2022-08-30T01:45:00.480Z,43.64
2022-08-30T01:46:03.196Z,43.73
2022-08-30T01:47:05.600Z,43.73
2022-08-30T01:48:08.848Z,43.98
2022-08-30T01:49:13.566Z,43.82
2022-08-30T01:50:16.523Z,43.82
2022-08-30T01:51:18.866Z,43.64
2022-08-30T01:52:22.511Z,43.72
2022-08-30T01:53:24.708Z,43.49
2022-08-30T01:54:27.275Z,43.94
2022-08-30T01:55:31.503Z,44.06
2022-08-30T01:56:35.767Z,44.16
2022-08-30T01:57:38.001Z,44.14
2022-08-30T01:58:40.683Z,44.02
2022-08-30T01:59:44.266Z,44.09
2022-08-30T02:00:46.739Z,44.02
2022-08-30T02:01:49.100Z,43.81
2022-08-30T02:02:51.428Z,43.73
2022-08-30T02:03:54.725Z,43.51
2022-08-30T02:04:56.977Z,43.51
2022-08-30T02:06:05.221Z,43.61
2022-08-30T02:07:07.641Z,43.94
2022-08-30T02:08:09.865Z,43.67
2022-08-30T02:09:12.216Z,43.55
2022-08-30T02:10:15.766Z,43.63
2022-08-30T02:11:18.080Z,43.70
2022-08-30T02:12:20.248Z,43.88
2022-08-30T02:13:22.618Z,43.72
2022-08-30T02:14:24.849Z,43.55
2022-08-30T02:15:27.213Z,43.44
2022-08-30T02:16:30.271Z,43.49
2022-08-30T02:17:32.852Z,43.40
2022-08-30T02:18:35.420Z,43.57
2022-08-30T02:19:38.100Z,43.48
2022-08-30T02:20:40.759Z,44.11
2022-08-30T02:21:43.135Z,44.08
2022-08-30T02:22:49.140Z,44.11
2022-08-30T02:23:50.317Z,44.74
2022-08-30T02:24:52.766Z,44.54
2022-08-30T02:25:55.018Z,44.66
2022-08-30T02:26:57.513Z,44.65
2022-08-30T02:27:59.881Z,44.64
2022-08-30T02:29:03.798Z,44.56
2022-08-30T02:30:08.332Z,44.45
2022-08-30T02:31:10.938Z,44.49
2022-08-30T02:32:13.236Z,44.65
2022-08-30T02:33:15.497Z,44.55
2022-08-30T02:34:17.851Z,44.61
2022-08-30T02:35:20.114Z,44.57
2022-08-30T02:36:24.384Z,44.47
2022-08-30T02:37:26.980Z,44.62
2022-08-30T02:38:29.238Z,44.89
2022-08-30T02:39:31.693Z,44.76
2022-08-30T02:40:34.337Z,44.80
2022-08-30T02:41:37.800Z,44.65
2022-08-30T02:42:40.550Z,44.50
2022-08-30T02:43:42.719Z,44.33
2022-08-30T02:44:44.988Z,44.23
2022-08-30T02:45:47.156Z,44.26
2022-08-30T02:46:50.714Z,44.44
2022-08-30T02:47:53.033Z,44.32
2022-08-30T02:48:55.288Z,44.22
2022-08-30T02:49:57.461Z,44.10
2022-08-30T02:51:05.919Z,44.05
2022-08-30T02:52:10.133Z,44.35
2022-08-30T02:53:16.119Z,44.23
2022-08-30T02:54:18.301Z,44.38
2022-08-30T02:55:20.463Z,44.40
2022-08-30T02:56:23.751Z,44.37
2022-08-30T02:57:25.887Z,44.47
2022-08-30T02:58:29.104Z,44.98
2022-08-30T02:59:34.212Z,45.30
2022-08-30T03:00:37.266Z,45.38
2022-08-30T03:01:40.688Z,45.75
2022-08-30T03:02:43.911Z,45.98
2022-08-30T03:03:46.395Z,46.33
2022-08-30T03:04:49.791Z,46.62
2022-08-30T03:05:52.110Z,47.05
2022-08-30T03:06:54.484Z,47.25
2022-08-30T03:07:56.909Z,47.69
2022-08-30T03:08:59.172Z,47.92
2022-08-30T03:10:01.431Z,47.99
2022-08-30T03:11:03.972Z,48.25
2022-08-30T03:12:06.593Z,48.55
2022-08-30T03:13:08.904Z,49.77
2022-08-30T03:14:11.374Z,49.77
2022-08-30T03:15:13.719Z,49.76
2022-08-30T03:16:18.015Z,49.83
2022-08-30T03:17:20.315Z,49.79
2022-08-30T03:18:22.577Z,50.12
2022-08-30T03:19:24.878Z,50.18
2022-08-30T03:20:27.329Z,50.34
2022-08-30T03:21:29.485Z,50.35
2022-08-30T03:22:32.337Z,50.12
2022-08-30T03:23:34.878Z,50.08
2022-08-30T03:24:37.235Z,50.04
2022-08-30T03:25:39.502Z,49.94
2022-08-30T03:26:46.240Z,50.11
2022-08-30T03:27:47.799Z,50.47
2022-08-30T03:28:50.140Z,50.65
2022-08-30T03:29:52.521Z,50.53
2022-08-30T03:30:54.819Z,51.06
2022-08-30T03:31:57.200Z,51.08
2022-08-30T03:33:00.169Z,51.61
2022-08-30T03:34:03.352Z,51.80
2022-08-30T03:35:06.738Z,51.83
2022-08-30T03:36:09.998Z,51.77
2022-08-30T03:37:12.157Z,51.75
2022-08-30T03:38:14.702Z,51.68
2022-08-30T03:39:16.866Z,51.50
2022-08-30T03:40:21.105Z,51.08
2022-08-30T03:41:25.768Z,50.73
2022-08-30T03:42:28.082Z,50.49
2022-08-30T03:43:32.112Z,50.37
2022-08-30T03:44:34.927Z,50.03
2022-08-30T03:45:38.725Z,49.93
2022-08-30T03:46:41.493Z,49.53
2022-08-30T03:47:43.943Z,49.58
2022-08-30T03:48:46.211Z,49.48
2022-08-30T03:49:48.596Z,49.48
2022-08-30T03:50:52.391Z,49.32
2022-08-30T03:51:54.631Z,49.22
2022-08-30T03:52:57.486Z,49.03
2022-08-30T03:54:00.206Z,49.07
2022-08-30T03:55:03.140Z,48.90
2022-08-30T03:56:05.775Z,48.90
2022-08-30T03:57:09.024Z,48.65
2022-08-30T03:58:13.114Z,48.61
2022-08-30T03:59:17.306Z,48.39
2022-08-30T04:00:20.743Z,48.07
2022-08-30T04:01:23.046Z,47.99
2022-08-30T04:02:25.251Z,48.07
2022-08-30T04:03:27.903Z,48.06
2022-08-30T04:04:30.235Z,47.75
2022-08-30T04:05:32.500Z,47.52
2022-08-30T04:06:35.883Z,47.65
2022-08-30T04:07:38.298Z,47.73
2022-08-30T04:08:41.146Z,47.71
2022-08-30T04:09:44.751Z,47.48
2022-08-30T04:10:47.549Z,47.42
2022-08-30T04:11:50.925Z,47.14
2022-08-30T04:12:53.242Z,47.22
2022-08-30T04:13:55.397Z,47.14
2022-08-30T04:14:59.416Z,47.12
2022-08-30T04:16:02.173Z,46.97
2022-08-30T04:17:04.625Z,46.74
2022-08-30T04:18:07.362Z,46.61
2022-08-30T04:19:09.678Z,46.81
2022-08-30T04:20:13.241Z,46.74
2022-08-30T04:21:15.549Z,46.64
2022-08-30T04:22:17.929Z,46.55
2022-08-30T04:23:20.265Z,46.51
2022-08-30T04:24:22.706Z,46.55
2022-08-30T04:25:24.873Z,46.57
2022-08-30T04:26:29.269Z,46.59
2022-08-30T04:27:31.482Z,46.39
2022-08-30T04:28:34.645Z,46.45
2022-08-30T04:29:37.037Z,46.27
2022-08-30T04:30:41.900Z,46.22
2022-08-30T04:31:45.884Z,46.13
2022-08-30T04:32:48.601Z,45.92
2022-08-30T04:33:50.885Z,45.72
2022-08-30T04:34:57.212Z,45.72
2022-08-30T04:36:01.128Z,45.66
2022-08-30T04:37:04.416Z,45.53
2022-08-30T04:38:06.613Z,45.91
2022-08-30T04:39:08.857Z,46.02
2022-08-30T04:40:11.864Z,46.06
2022-08-30T04:41:18.666Z,46.01
2022-08-30T04:42:20.891Z,46.08
2022-08-30T04:43:23.261Z,46.26
2022-08-30T04:44:25.391Z,46.34
2022-08-30T04:45:27.810Z,46.49
2022-08-30T04:46:30.647Z,46.65
2022-08-30T04:47:33.853Z,46.74
2022-08-30T04:49:49.571Z,46.72
2022-08-30T04:50:51.859Z,46.46
2022-08-30T04:51:54.102Z,46.36
2022-08-30T04:52:56.990Z,46.48
2022-08-30T04:53:59.364Z,46.44
2022-08-30T04:55:01.730Z,46.21
2022-08-30T04:57:22.181Z,45.93
2022-08-30T04:58:24.615Z,45.80
2022-08-30T04:59:27.140Z,45.61
2022-08-30T05:00:30.781Z,45.91
2022-08-30T05:01:44.754Z,45.84
2022-08-30T05:02:38.842Z,45.92
2022-08-30T05:03:42.044Z,45.85
2022-08-30T05:04:44.373Z,45.63
2022-08-30T05:05:49.320Z,45.65
2022-08-30T05:06:51.627Z,45.61
2022-08-30T05:07:54.092Z,45.59
2022-08-30T05:08:57.336Z,45.60
2022-08-30T05:10:00.003Z,45.72
2022-08-30T05:11:03.680Z,45.82
2022-08-30T05:12:06.797Z,45.94
2022-08-30T05:13:09.380Z,45.92
2022-08-30T05:14:11.658Z,45.89
2022-08-30T05:15:14.046Z,45.77
2022-08-30T05:16:18.243Z,45.69
2022-08-30T05:17:21.335Z,46.42
2022-08-30T05:18:24.835Z,46.42
2022-08-30T05:19:27.569Z,45.85
2022-08-30T05:20:29.966Z,45.84
2022-08-30T05:21:32.701Z,45.66
2022-08-30T05:23:49.734Z,45.80
2022-08-30T05:24:51.973Z,45.87
2022-08-30T05:25:54.132Z,45.87
2022-08-30T05:26:56.525Z,45.77
2022-08-30T05:27:58.859Z,45.80
2022-08-30T05:29:02.280Z,45.76
2022-08-30T05:30:05.675Z,45.80
2022-08-30T05:31:26.203Z,45.70
2022-08-30T05:32:29.139Z,45.63
2022-08-30T05:33:32.332Z,45.64
2022-08-30T05:34:36.412Z,45.68
2022-08-30T05:35:38.585Z,45.79
2022-08-30T05:36:42.161Z,45.71
2022-08-30T05:37:44.631Z,45.73
2022-08-30T05:38:47.901Z,45.59
2022-08-30T05:39:51.142Z,45.63
2022-08-30T05:40:54.740Z,45.69
2022-08-30T05:43:10.735Z,45.35
2022-08-30T05:44:12.990Z,45.22
2022-08-30T05:45:16.200Z,45.18
2022-08-30T05:46:20.135Z,45.20
2022-08-30T05:47:23.630Z,45.13
2022-08-30T05:48:26.988Z,45.12
2022-08-30T05:49:29.213Z,45.28
2022-08-30T05:50:34.097Z,45.34
2022-08-30T05:51:37.006Z,45.39
2022-08-30T05:52:41.605Z,45.31
2022-08-30T05:53:44.322Z,45.26
2022-08-30T05:54:52.305Z,45.27
2022-08-30T05:55:55.061Z,45.22
2022-08-30T05:56:57.658Z,45.16
2022-08-30T05:57:59.885Z,45.08
2022-08-30T05:59:04.847Z,45.15
2022-08-30T06:00:10.775Z,45.20
2022-08-30T06:01:28.968Z,45.14
2022-08-30T06:02:31.488Z,45.03
2022-08-30T06:03:33.741Z,44.96
2022-08-30T06:04:35.944Z,44.91
2022-08-30T06:05:38.270Z,45.00
2022-08-30T06:06:42.268Z,44.96
2022-08-30T06:07:44.637Z,44.99
2022-08-30T06:08:47.358Z,44.99
2022-08-30T06:09:49.818Z,44.96
2022-08-30T06:10:52.487Z,44.82
2022-08-30T06:11:55.628Z,44.82
2022-08-30T06:12:59.291Z,44.90
2022-08-30T06:14:02.000Z,44.92
2022-08-30T06:15:05.472Z,45.00
2022-08-30T06:16:10.910Z,44.95
2022-08-30T06:17:13.391Z,44.89
2022-08-30T06:18:15.792Z,44.82
2022-08-30T06:19:19.002Z,44.72
2022-08-30T06:20:24.133Z,44.77
2022-08-30T06:21:29.289Z,44.70
2022-08-30T06:22:32.641Z,44.82
2022-08-30T06:23:35.507Z,44.88
2022-08-30T06:24:56.265Z,44.93
2022-08-30T06:25:44.032Z,45.00
2022-08-30T06:26:47.721Z,45.04
2022-08-30T06:27:55.902Z,45.18
2022-08-30T06:28:56.757Z,45.29
2022-08-30T06:29:59.672Z,45.43
2022-08-30T06:31:08.224Z,45.43
2022-08-30T06:32:10.668Z,45.39
2022-08-30T06:33:13.981Z,45.38
2022-08-30T06:34:16.838Z,45.31
2022-08-30T06:35:19.100Z,45.20
2022-08-30T06:36:22.913Z,45.12
2022-08-30T06:37:29.967Z,44.98
2022-08-30T06:38:30.402Z,44.89
2022-08-30T06:39:32.598Z,44.95
2022-08-30T06:40:35.885Z,44.91
2022-08-30T06:41:39.391Z,44.95
2022-08-30T06:42:43.576Z,45.00
2022-08-30T06:43:49.070Z,44.92
2022-08-30T06:44:51.476Z,44.81
2022-08-30T06:45:54.155Z,44.74
2022-08-30T06:46:57.754Z,44.64
2022-08-30T06:48:01.070Z,44.75
2022-08-30T06:49:04.086Z,44.58
2022-08-30T06:50:07.751Z,44.61
2022-08-30T06:51:14.008Z,44.72
2022-08-30T06:52:17.938Z,44.85
2022-08-30T06:53:22.375Z,44.80
2022-08-30T06:54:25.003Z,44.96
2022-08-30T06:55:27.714Z,44.85
2022-08-30T06:56:31.357Z,45.09
2022-08-30T06:57:33.703Z,44.99
2022-08-30T06:58:36.880Z,45.02
2022-08-30T06:59:39.496Z,44.96
2022-08-30T07:00:44.158Z,44.91
2022-08-30T07:01:47.418Z,44.76
2022-08-30T07:02:49.793Z,44.85
2022-08-30T07:03:52.351Z,44.95
2022-08-30T07:04:55.008Z,44.83
2022-08-30T07:05:58.546Z,44.85
2022-08-30T07:07:01.374Z,44.94
2022-08-30T07:08:03.538Z,44.91
2022-08-30T07:09:06.854Z,44.84
2022-08-30T07:10:10.380Z,44.95
2022-08-30T07:11:12.701Z,44.91
2022-08-30T07:12:14.952Z,44.86
2022-08-30T07:13:18.246Z,44.83
2022-08-30T07:14:20.761Z,44.72
2022-08-30T07:15:24.757Z,44.63
2022-08-30T07:16:28.051Z,44.61
2022-08-30T07:17:34.013Z,44.48
2022-08-30T07:18:35.276Z,44.46
2022-08-30T07:19:37.590Z,44.48
2022-08-30T07:20:40.866Z,44.54
2022-08-30T07:21:43.492Z,44.60
2022-08-30T07:22:47.728Z,44.55
2022-08-30T07:23:53.279Z,44.26
2022-08-30T07:24:54.944Z,44.34
2022-08-30T07:25:57.376Z,44.40
2022-08-30T07:26:59.749Z,44.46
2022-08-30T07:28:02.637Z,44.40
2022-08-30T07:29:04.980Z,43.97
2022-08-30T07:30:08.645Z,44.12
2022-08-30T07:31:12.776Z,44.13
2022-08-30T07:32:15.273Z,44.26
2022-08-30T07:33:17.533Z,44.35
2022-08-30T07:34:21.463Z,44.12
2022-08-30T07:35:24.295Z,44.14
2022-08-30T07:36:27.013Z,44.15
2022-08-30T07:37:30.217Z,44.09
2022-08-30T07:38:32.603Z,43.73
2022-08-30T07:39:39.751Z,43.66
2022-08-30T07:40:40.467Z,43.35
2022-08-30T07:41:43.926Z,43.70
2022-08-30T07:42:50.249Z,43.68
2022-08-30T07:43:52.837Z,43.65
2022-08-30T07:44:56.877Z,43.88
2022-08-30T07:47:18.157Z,43.67
2022-08-30T07:48:21.714Z,43.76
2022-08-30T07:49:24.632Z,43.85
2022-08-30T07:50:27.740Z,43.60
2022-08-30T07:51:31.090Z,43.27
2022-08-30T07:52:34.263Z,43.45
2022-08-30T07:53:36.782Z,43.60
2022-08-30T07:54:39.860Z,43.65
2022-08-30T07:55:43.001Z,43.74
2022-08-30T07:56:45.477Z,43.63
2022-08-30T07:57:48.093Z,43.39
2022-08-30T07:58:51.585Z,43.38
2022-08-30T07:59:53.997Z,43.35
2022-08-30T08:00:57.141Z,43.18
2022-08-30T08:02:01.231Z,43.15
2022-08-30T08:03:08.417Z,43.19
2022-08-30T08:04:10.770Z,43.23
2022-08-30T08:05:17.609Z,43.15
2022-08-30T08:06:20.279Z,43.30
2022-08-30T08:07:22.599Z,43.41
2022-08-30T08:08:25.078Z,43.45
2022-08-30T08:09:30.110Z,43.48
2022-08-30T08:10:35.902Z,42.94
2022-08-30T08:11:39.129Z,42.88
2022-08-30T08:12:41.311Z,42.57
2022-08-30T08:13:48.996Z,42.85
2022-08-30T08:14:50.873Z,43.03
2022-08-30T08:15:54.612Z,43.03
2022-08-30T08:16:57.072Z,42.89
2022-08-30T08:18:00.011Z,42.94
2022-08-30T08:19:03.723Z,43.16
2022-08-30T08:20:07.292Z,43.12
2022-08-30T08:21:09.798Z,43.17
2022-08-30T08:22:27.282Z,43.24
2022-08-30T08:23:16.242Z,43.16
2022-08-30T08:24:19.456Z,43.03
2022-08-30T08:25:21.874Z,42.98
2022-08-30T08:26:24.496Z,42.42
2022-08-30T08:27:26.947Z,42.43
2022-08-30T08:28:31.488Z,42.13
2022-08-30T08:29:33.873Z,41.98
2022-08-30T08:30:38.271Z,42.19
2022-08-30T08:31:40.674Z,42.30
2022-08-30T08:32:43.579Z,41.89
2022-08-30T08:33:46.127Z,42.00
2022-08-30T08:34:48.409Z,41.54
2022-08-30T08:35:51.119Z,41.25
2022-08-30T08:36:54.492Z,41.33
2022-08-30T08:37:57.175Z,41.54
2022-08-30T08:38:59.973Z,41.74
2022-08-30T08:40:03.507Z,40.78
2022-08-30T08:41:26.679Z,41.17
2022-08-30T08:42:47.831Z,41.48
2022-08-30T08:43:50.123Z,41.56
2022-08-30T08:45:11.249Z,41.52
2022-08-30T08:46:26.674Z,40.87
2022-08-30T08:48:07.432Z,41.11
2022-08-30T08:49:09.826Z,40.72
2022-08-30T08:50:17.452Z,40.57
2022-08-30T08:51:23.847Z,40.88
2022-08-30T08:52:33.256Z,40.90
2022-08-30T08:53:45.514Z,40.67
2022-08-30T08:56:05.211Z,41.00
2022-08-30T08:57:10.293Z,40.77
2022-08-30T08:58:16.703Z,40.72
2022-08-30T08:59:19.629Z,40.29
2022-08-30T09:00:23.029Z,40.54
2022-08-30T09:01:29.422Z,40.72
2022-08-30T09:03:52.940Z,40.61
2022-08-30T09:04:57.624Z,40.70
2022-08-30T09:06:01.878Z,40.32
2022-08-30T09:07:07.100Z,40.53
2022-08-30T09:08:11.978Z,39.96
2022-08-30T09:09:18.008Z,39.89
2022-08-30T09:10:40.483Z,40.06
2022-08-30T09:11:28.291Z,40.37
2022-08-30T09:12:30.810Z,38.85
2022-08-30T09:13:34.139Z,39.84
2022-08-30T09:14:44.277Z,40.47
2022-08-30T09:15:44.011Z,40.61
2022-08-30T09:17:02.948Z,40.32
2022-08-30T09:18:06.795Z,40.47
2022-08-30T09:19:12.124Z,40.21
2022-08-30T09:20:36.540Z,40.54
2022-08-30T09:21:38.998Z,40.22
2022-08-30T09:22:41.292Z,40.37
2022-08-30T09:25:07.626Z,40.04
2022-08-30T09:26:12.032Z,40.18
2022-08-30T09:27:23.835Z,40.07
2022-08-30T09:28:29.348Z,39.99
2022-08-30T09:29:31.655Z,39.35
2022-08-30T09:30:34.766Z,39.42
2022-08-30T09:31:52.953Z,39.41
2022-08-30T09:32:57.719Z,39.20
2022-08-30T09:34:01.541Z,38.81
2022-08-30T09:35:15.394Z,38.63
2022-08-30T09:36:27.679Z,38.41
2022-08-30T09:37:36.644Z,38.47
2022-08-30T09:38:39.035Z,37.63
2022-08-30T09:39:41.819Z,37.99
2022-08-30T09:40:46.527Z,38.10
2022-08-30T09:41:49.428Z,38.23
2022-08-30T09:43:03.938Z,38.30
2022-08-30T09:44:19.391Z,37.61
2022-08-30T09:45:26.579Z,37.17
2022-08-30T09:46:30.660Z,36.92
2022-08-30T09:47:33.449Z,36.95
2022-08-30T09:48:38.962Z,35.99
2022-08-30T09:49:42.450Z,36.60
2022-08-30T09:50:45.441Z,35.79
2022-08-30T09:51:54.320Z,37.03
2022-08-30T09:53:05.188Z,36.51
2022-08-30T09:54:26.072Z,37.21
2022-08-30T09:55:51.623Z,37.69
2022-08-30T09:57:16.975Z,37.47
2022-08-30T09:58:29.951Z,36.71
2022-08-30T10:01:23.931Z,36.61
2022-08-30T10:02:39.883Z,37.25
2022-08-30T10:03:54.953Z,37.24
2022-08-30T10:05:19.059Z,37.40
2022-08-30T10:07:47.880Z,36.88
2022-08-30T10:09:04.758Z,37.62
2022-08-30T10:10:17.051Z,37.52
2022-08-30T10:11:38.414Z,37.37
2022-08-30T10:15:46.688Z,36.97
2022-08-30T10:16:59.639Z,36.67
2022-08-30T10:18:29.085Z,36.85
2022-08-30T10:21:15.639Z,37.17
2022-08-30T10:23:38.393Z,37.32
2022-08-30T10:24:46.308Z,37.08
2022-08-30T10:25:54.786Z,37.36
2022-08-30T10:27:05.257Z,37.14
2022-08-30T10:28:17.867Z,37.24
2022-08-30T10:29:25.020Z,37.09
2022-08-30T10:30:45.472Z,37.28
2022-08-30T10:31:57.505Z,37.30
2022-08-30T10:34:44.900Z,37.18
2022-08-30T10:35:58.699Z,37.26
2022-08-30T10:38:19.525Z,37.35
2022-08-30T10:39:24.123Z,37.06
2022-08-30T10:40:30.284Z,37.35
2022-08-30T10:41:42.512Z,37.22
2022-08-30T10:42:44.825Z,37.14
2022-08-30T10:44:23.479Z,37.18
2022-08-30T10:45:32.521Z,37.21
2022-08-30T10:46:50.001Z,37.30
2022-08-30T10:47:56.272Z,37.27
2022-08-30T10:50:24.708Z,37.46
2022-08-30T10:51:53.237Z,37.48
2022-08-30T10:53:35.499Z,37.57
2022-08-30T10:54:43.566Z,37.57
2022-08-30T10:55:55.699Z,37.52
2022-08-30T10:57:00.116Z,37.62
2022-08-30T10:58:04.130Z,37.63
2022-08-30T10:59:07.466Z,37.52
2022-08-30T11:01:49.987Z,37.29
2022-08-30T11:03:15.874Z,37.30
2022-08-30T11:04:32.264Z,37.44
2022-08-30T11:06:05.541Z,37.40
2022-08-30T11:07:29.831Z,37.48
2022-08-30T11:08:54.359Z,37.44
2022-08-30T11:10:24.129Z,37.39
2022-08-30T11:11:34.571Z,37.40
2022-08-30T11:12:57.000Z,37.33
2022-08-30T11:14:05.423Z,37.29
2022-08-30T11:15:22.960Z,37.48
2022-08-30T11:16:44.224Z,37.53
2022-08-30T11:17:59.437Z,37.42
2022-08-30T11:19:02.043Z,37.40
2022-08-30T11:20:05.633Z,37.40
2022-08-30T11:21:32.272Z,37.28
2022-08-30T11:22:39.077Z,37.45
2022-08-30T11:23:40.737Z,37.47
2022-08-30T11:25:09.778Z,37.41
2022-08-30T11:26:12.150Z,37.42
2022-08-30T11:27:34.144Z,37.55
2022-08-30T11:28:40.521Z,37.43
2022-08-30T11:29:44.319Z,37.53
2022-08-30T11:30:48.281Z,37.06
2022-08-30T11:31:51.117Z,37.43
2022-08-30T11:33:09.697Z,37.42
2022-08-30T11:34:12.238Z,37.43
2022-08-30T11:35:18.266Z,37.36
2022-08-30T11:36:37.313Z,37.31
2022-08-30T11:37:38.425Z,37.34
2022-08-30T11:38:44.588Z,37.27
2022-08-30T11:39:50.646Z,37.34
2022-08-30T11:40:59.867Z,37.30
2022-08-30T11:42:30.205Z,37.16
2022-08-30T11:43:39.484Z,37.13
2022-08-30T11:44:42.518Z,37.07
2022-08-30T11:45:46.085Z,37.20
2022-08-30T11:46:53.517Z,37.17
2022-08-30T11:47:59.732Z,37.03
2022-08-30T11:49:16.324Z,37.10
2022-08-30T11:50:25.203Z,36.82
2022-08-30T11:51:43.748Z,36.67
2022-08-30T11:52:52.258Z,36.73
2022-08-30T11:55:19.907Z,36.83
2022-08-30T11:56:29.471Z,36.91
2022-08-30T11:57:39.337Z,36.87
2022-08-30T11:58:48.299Z,36.32
2022-08-30T12:00:03.617Z,36.19
2022-08-30T12:01:50.383Z,36.30
2022-08-30T12:02:55.606Z,36.31
2022-08-30T12:04:15.223Z,36.72
2022-08-30T12:06:59.415Z,36.67
2022-08-30T12:08:02.786Z,36.72
2022-08-30T12:09:08.394Z,36.67
2022-08-30T12:10:14.676Z,36.62
2022-08-30T12:11:20.706Z,36.47
2022-08-30T12:12:39.657Z,36.28
2022-08-30T12:13:46.926Z,36.01
2022-08-30T12:14:53.890Z,36.21
2022-08-30T12:15:58.093Z,36.32
2022-08-30T12:17:01.718Z,36.46
2022-08-30T12:18:04.605Z,36.45
2022-08-30T12:19:18.337Z,36.55
2022-08-30T12:20:26.986Z,36.59
2022-08-30T12:21:43.975Z,36.49
2022-08-30T12:22:39.346Z,36.65
2022-08-30T12:23:54.030Z,36.37
2022-08-30T12:24:56.972Z,36.46
2022-08-30T12:26:15.925Z,36.14
2022-08-30T12:27:32.885Z,36.35
2022-08-30T12:28:34.603Z,35.87
2022-08-30T12:29:36.956Z,35.99
2022-08-30T12:30:40.574Z,36.01
2022-08-30T12:31:58.580Z,35.93
2022-08-30T12:33:02.397Z,35.59
2022-08-30T12:34:06.284Z,36.23
2022-08-30T12:35:12.952Z,36.17
2022-08-30T12:36:36.330Z,35.91
2022-08-30T12:37:38.847Z,35.99
2022-08-30T12:38:43.157Z,36.39
2022-08-30T12:39:45.837Z,36.39
2022-08-30T12:40:55.256Z,36.28
2022-08-30T12:42:20.275Z,36.02
2022-08-30T12:43:26.751Z,36.39
2022-08-30T12:44:32.077Z,36.57
2022-08-30T12:45:42.085Z,36.32
2022-08-30T12:46:47.237Z,36.27
2022-08-30T12:47:58.680Z,36.45
2022-08-30T12:49:01.046Z,36.49
2022-08-30T12:50:07.214Z,36.46
2022-08-30T12:51:26.941Z,36.33
2022-08-30T12:52:35.297Z,36.32
2022-08-30T12:53:40.073Z,36.45
2022-08-30T12:54:43.366Z,36.36
2022-08-30T12:56:01.194Z,36.45
2022-08-30T12:57:34.936Z,36.60
2022-08-30T12:58:10.076Z,36.72
2022-08-30T12:59:33.491Z,36.69
2022-08-30T13:00:38.572Z,36.76
2022-08-30T13:01:40.891Z,36.20
2022-08-30T13:02:46.823Z,36.06
2022-08-30T13:03:59.941Z,36.12
2022-08-30T13:05:06.050Z,35.70
2022-08-30T13:06:08.868Z,35.59
2022-08-30T13:07:11.409Z,35.99
2022-08-30T13:08:22.407Z,35.83
2022-08-30T13:09:28.661Z,35.94
2022-08-30T13:10:34.405Z,36.11
2022-08-30T13:11:37.894Z,36.07
2022-08-30T13:12:40.187Z,36.05
2022-08-30T13:15:19.095Z,36.24
2022-08-30T13:16:26.165Z,36.32
2022-08-30T13:17:28.898Z,36.41
2022-08-30T13:18:32.257Z,36.32
2022-08-30T13:19:40.737Z,36.24
2022-08-30T13:20:43.441Z,36.16
2022-08-30T13:21:48.917Z,36.14
2022-08-30T13:23:05.767Z,36.26
2022-08-30T13:24:08.982Z,36.32
2022-08-30T13:25:12.302Z,36.18
2022-08-30T13:26:20.453Z,35.96
2022-08-30T13:27:21.067Z,35.96
2022-08-30T13:28:25.364Z,35.88
2022-08-30T13:29:27.919Z,36.19
2022-08-30T13:30:31.285Z,36.19
2022-08-30T13:31:33.681Z,36.25
2022-08-30T13:32:38.816Z,36.10
2022-08-30T13:33:40.391Z,35.90
2022-08-30T13:34:43.048Z,36.13
2022-08-30T13:35:45.867Z,35.67
2022-08-30T13:36:56.401Z,35.98
2022-08-30T13:38:00.037Z,35.95
2022-08-30T13:39:02.813Z,36.23
2022-08-30T13:40:08.274Z,36.20
2022-08-30T13:41:12.281Z,36.22
2022-08-30T13:43:19.079Z,36.30
2022-08-30T13:44:23.050Z,36.21
2022-08-30T13:45:41.462Z,36.12
2022-08-30T13:46:31.136Z,36.12
2022-08-30T13:47:33.587Z,36.14
2022-08-30T13:48:38.642Z,35.97
2022-08-30T13:49:43.917Z,35.89
2022-08-30T13:50:47.258Z,35.89
2022-08-30T13:52:09.472Z,35.89
2022-08-30T13:52:54.098Z,36.10
2022-08-30T13:53:56.386Z,35.93
2022-08-30T13:54:59.948Z,35.91
2022-08-30T13:56:04.583Z,36.06
2022-08-30T13:57:06.762Z,35.89
2022-08-30T13:58:09.656Z,35.59
2022-08-30T13:59:14.415Z,35.75
2022-08-30T14:00:18.383Z,35.86
2022-08-30T14:01:22.086Z,35.78
2022-08-30T14:02:25.033Z,35.76
2022-08-30T14:03:28.169Z,35.69
2022-08-30T14:04:31.272Z,35.80
2022-08-30T14:06:04.710Z,35.80
2022-08-30T14:07:13.598Z,35.71
2022-08-30T14:07:45.015Z,35.76
2022-08-30T14:08:48.729Z,35.69
2022-08-30T14:09:53.244Z,35.59
2022-08-30T14:10:56.753Z,35.62
2022-08-30T14:11:59.048Z,35.66
2022-08-30T14:13:08.944Z,35.57
2022-08-30T14:14:30.187Z,35.58
2022-08-30T14:15:13.482Z,35.63
2022-08-30T14:17:50.656Z,35.76
2022-08-30T14:18:53.284Z,35.79
2022-08-30T14:19:58.026Z,35.46
2022-08-30T14:21:03.750Z,35.48
2022-08-30T14:22:08.877Z,35.08
2022-08-30T14:23:11.276Z,35.17
2022-08-30T14:24:13.856Z,35.11
2022-08-30T14:25:16.339Z,35.03
2022-08-30T14:26:22.751Z,35.18
2022-08-30T14:27:25.057Z,35.18
2022-08-30T14:28:29.156Z,35.24
2022-08-30T14:29:33.296Z,35.30
2022-08-30T14:30:37.564Z,35.34
2022-08-30T14:31:42.252Z,35.29
2022-08-30T14:32:44.758Z,35.28
2022-08-30T14:33:47.525Z,35.21
2022-08-30T14:34:50.175Z,35.31
2022-08-30T14:35:54.541Z,35.31